RJOI(METAR)
08/23 03:55
METAR RJOI 221855Z 21006KT 9999 FEW020 BKN045 OVC060 27/23 A2976 RMK
SLP078 T02670233=
戻る
トップページへ戻る
IMOC Co,.Ltd.